createdAt,value
2022-11-23T00:00:37.815Z,83.57
2022-11-23T00:03:06.483Z,77.50
2022-11-23T00:05:35.972Z,83.38
2022-11-23T00:08:14.340Z,72.63
2022-11-23T00:10:51.733Z,84.18
2022-11-23T00:13:21.580Z,79.55
2022-11-23T00:15:50.301Z,89.30
2022-11-23T00:21:15.994Z,81.78
2022-11-23T00:23:45.197Z,77.63
2022-11-23T00:26:14.961Z,73.32
2022-11-23T00:28:44.983Z,80.13
2022-11-23T00:31:17.561Z,74.72
2022-11-23T00:34:04.805Z,77.97
2022-11-23T00:36:34.101Z,80.53
2022-11-23T00:39:24.424Z,86.10
2022-11-23T00:41:53.049Z,80.00
2022-11-23T00:44:45.415Z,80.43
2022-11-23T00:47:21.481Z,77.15
2022-11-23T00:49:55.970Z,87.10
2022-11-23T00:52:24.627Z,79.57
2022-11-23T00:54:56.194Z,77.28
2022-11-23T00:57:29.302Z,73.55
2022-11-23T00:59:59.212Z,75.72
2022-11-23T01:02:28.181Z,84.15
2022-11-23T01:04:57.545Z,81.00
2022-11-23T01:07:30.828Z,76.55
2022-11-23T01:10:06.614Z,73.35
2022-11-23T01:12:35.451Z,91.10
2022-11-23T01:15:29.145Z,89.45
2022-11-23T01:17:57.714Z,96.50
2022-11-23T01:20:26.452Z,88.00
2022-11-23T01:22:57.441Z,76.85
2022-11-23T01:25:25.911Z,89.28
2022-11-23T01:28:05.723Z,82.82
2022-11-23T01:30:53.345Z,88.32
2022-11-23T01:33:25.074Z,82.80
2022-11-23T01:35:53.629Z,85.30
2022-11-23T01:38:22.306Z,83.05
2022-11-23T01:40:51.207Z,74.32
2022-11-23T01:43:20.153Z,79.55
2022-11-23T01:46:00.483Z,81.90
2022-11-23T01:48:32.516Z,89.68
2022-11-23T01:51:06.596Z,80.88
2022-11-23T01:53:47.344Z,80.53
2022-11-23T01:56:21.404Z,83.50
2022-11-23T01:59:02.649Z,85.30
2022-11-23T02:01:32.996Z,85.35
2022-11-23T02:04:03.441Z,84.90
2022-11-23T02:06:32.930Z,81.60
2022-11-23T02:09:04.645Z,84.60
2022-11-23T02:11:33.279Z,86.35
2022-11-23T02:14:01.724Z,82.32
2022-11-23T02:17:01.828Z,94.20
2022-11-23T02:19:42.841Z,79.65
2022-11-23T02:22:18.391Z,85.82
2022-11-23T02:24:56.636Z,79.82
2022-11-23T02:27:48.745Z,77.55
2022-11-23T02:30:17.099Z,70.88
2022-11-23T02:32:46.092Z,74.40
2022-11-23T02:35:14.409Z,81.05
2022-11-23T02:37:47.693Z,92.50
2022-11-23T02:40:33.380Z,87.85
2022-11-23T02:46:06.150Z,85.68
2022-11-23T02:48:35.590Z,71.38
2022-11-23T02:51:05.602Z,77.85
2022-11-23T02:53:34.191Z,63.95
2022-11-23T02:56:16.064Z,68.90
2022-11-23T02:59:00.866Z,71.93
2022-11-23T03:01:30.380Z,72.88
2022-11-23T03:04:01.743Z,73.72
2022-11-23T03:06:30.789Z,80.88
2022-11-23T03:08:59.558Z,67.70
2022-11-23T03:11:28.136Z,68.03
2022-11-23T03:13:57.754Z,66.05
2022-11-23T03:16:27.852Z,73.40
2022-11-23T03:18:58.069Z,79.15
2022-11-23T03:21:27.063Z,68.13
2022-11-23T03:23:58.330Z,63.90
2022-11-23T03:26:27.818Z,62.95
2022-11-23T03:29:05.021Z,70.45
2022-11-23T03:31:51.051Z,67.35
2022-11-23T03:34:23.683Z,68.80
2022-11-23T03:36:53.915Z,70.25
2022-11-23T03:39:22.369Z,69.38
2022-11-23T03:42:09.230Z,63.28
2022-11-23T03:44:40.500Z,72.75
2022-11-23T03:47:10.357Z,70.32
2022-11-23T03:49:41.351Z,69.32
2022-11-23T03:52:11.253Z,69.38
2022-11-23T03:54:40.470Z,62.72
2022-11-23T03:57:09.059Z,63.03
2022-11-23T03:59:39.912Z,63.42
2022-11-23T04:02:21.875Z,57.95
2022-11-23T04:05:03.090Z,68.57
2022-11-23T04:08:04.457Z,63.45
2022-11-23T04:10:44.891Z,59.38
2022-11-23T04:13:21.814Z,76.53
2022-11-23T04:16:01.353Z,73.82
2022-11-23T04:18:34.643Z,55.80
2022-11-23T04:21:03.435Z,69.95
2022-11-23T04:23:38.551Z,67.65
2022-11-23T04:26:12.768Z,59.75
2022-11-23T04:32:02.486Z,62.78
2022-11-23T04:34:50.640Z,61.35
2022-11-23T04:37:19.169Z,64.25
2022-11-23T04:40:02.277Z,60.72
2022-11-23T04:43:04.267Z,63.35
2022-11-23T04:45:40.124Z,71.30
2022-11-23T04:48:14.543Z,70.88
2022-11-23T04:50:46.935Z,55.13
2022-11-23T04:53:21.257Z,59.85
2022-11-23T04:55:49.574Z,58.65
2022-11-23T04:58:18.869Z,61.08
2022-11-23T05:00:52.237Z,55.78
2022-11-23T05:03:20.890Z,57.95
2022-11-23T05:05:53.362Z,53.67
2022-11-23T05:08:21.942Z,54.47
2022-11-23T05:11:12.779Z,67.85
2022-11-23T05:13:41.436Z,49.35
2022-11-23T05:16:09.916Z,50.95
2022-11-23T05:18:41.155Z,58.90
2022-11-23T05:21:17.812Z,56.45
2022-11-23T05:23:46.164Z,49.40
2022-11-23T05:26:15.393Z,56.20
2022-11-23T05:28:47.247Z,52.95
2022-11-23T05:31:33.716Z,52.75
2022-11-23T05:34:10.489Z,42.05
2022-11-23T05:36:47.878Z,44.63
2022-11-23T05:39:17.544Z,42.10
2022-11-23T05:41:53.109Z,48.53
2022-11-23T05:44:34.681Z,43.63
2022-11-23T05:47:10.429Z,48.33
2022-11-23T05:49:40.138Z,53.08
2022-11-23T05:52:10.408Z,47.60
2022-11-23T05:54:55.386Z,59.88
2022-11-23T05:57:52.678Z,45.92
2022-11-23T06:00:23.750Z,52.35
2022-11-23T06:03:03.173Z,58.10
2022-11-23T06:05:35.873Z,53.10
2022-11-23T06:08:12.867Z,52.35
2022-11-23T06:10:41.474Z,47.60
2022-11-23T06:13:09.750Z,49.53
2022-11-23T06:15:38.291Z,50.67
2022-11-23T06:18:17.769Z,43.92
2022-11-23T06:20:50.259Z,42.08
2022-11-23T06:23:25.105Z,42.15
2022-11-23T06:25:53.997Z,42.63
2022-11-23T06:28:32.044Z,42.38
2022-11-23T06:31:06.968Z,41.20
2022-11-23T06:33:39.360Z,50.90
2022-11-23T06:36:10.012Z,44.78
2022-11-23T06:38:46.154Z,44.03
2022-11-23T06:41:18.990Z,52.20
2022-11-23T06:43:49.053Z,44.70
2022-11-23T06:46:26.856Z,45.33
2022-11-23T06:48:57.892Z,44.60
2022-11-23T06:51:48.758Z,45.65
2022-11-23T06:54:43.134Z,44.78
2022-11-23T06:57:14.800Z,48.70
2022-11-23T06:59:45.051Z,41.33
2022-11-23T07:02:18.154Z,40.65
2022-11-23T07:04:46.909Z,44.47
2022-11-23T07:07:18.715Z,51.08
2022-11-23T07:09:57.675Z,40.78
2022-11-23T07:12:42.645Z,45.25
2022-11-23T07:15:12.005Z,45.50
2022-11-23T07:17:46.442Z,45.35
2022-11-23T07:20:18.860Z,47.53
2022-11-23T07:22:48.544Z,46.38
2022-11-23T07:25:29.234Z,55.42
2022-11-23T07:27:58.024Z,46.58
2022-11-23T07:30:29.562Z,54.10
2022-11-23T07:33:07.028Z,49.65
2022-11-23T07:35:37.418Z,47.72
2022-11-23T07:38:09.374Z,54.85
2022-11-23T07:40:40.490Z,51.38
2022-11-23T07:43:27.789Z,50.90
2022-11-23T07:45:57.419Z,60.95
2022-11-23T07:48:31.878Z,48.72
2022-11-23T07:51:26.259Z,50.47
2022-11-23T07:53:54.543Z,49.70
2022-11-23T07:56:27.572Z,53.90
2022-11-23T07:58:56.035Z,46.22
2022-11-23T08:01:24.477Z,47.42
2022-11-23T08:06:43.076Z,43.47
2022-11-23T08:09:11.529Z,50.72
2022-11-23T08:11:52.979Z,54.78
2022-11-23T08:14:36.919Z,60.25
2022-11-23T08:17:05.679Z,55.78
2022-11-23T08:19:35.253Z,53.58
2022-11-23T08:22:03.546Z,50.78
2022-11-23T08:24:35.772Z,61.53
2022-11-23T08:27:05.727Z,67.82
2022-11-23T08:29:34.093Z,50.00
2022-11-23T08:32:38.586Z,47.88
2022-11-23T08:35:07.866Z,41.60
2022-11-23T08:37:36.146Z,45.17
2022-11-23T08:40:04.839Z,43.22
2022-11-23T08:42:41.446Z,43.05
2022-11-23T08:45:27.394Z,49.92
2022-11-23T08:47:56.122Z,43.53
2022-11-23T08:50:29.274Z,45.05
2022-11-23T08:52:57.977Z,49.83
2022-11-23T08:55:59.950Z,51.83
2022-11-23T08:58:29.857Z,47.17
2022-11-23T09:00:58.219Z,52.03
2022-11-23T09:03:31.131Z,47.58
2022-11-23T09:06:20.676Z,41.22
2022-11-23T09:08:49.304Z,38.13
2022-11-23T09:11:19.408Z,50.50
2022-11-23T09:13:57.142Z,45.53
2022-11-23T09:16:33.999Z,41.95
2022-11-23T09:19:02.609Z,43.78
2022-11-23T09:21:33.541Z,40.03
2022-11-23T09:24:01.861Z,47.22
2022-11-23T09:26:31.888Z,50.90
2022-11-23T09:29:05.778Z,45.75
2022-11-23T09:31:34.059Z,48.15
2022-11-23T09:34:02.374Z,44.63
2022-11-23T09:36:30.759Z,39.67
2022-11-23T09:38:59.286Z,46.70
2022-11-23T09:42:01.134Z,45.35
2022-11-23T09:44:40.537Z,47.58
2022-11-23T09:47:27.204Z,46.25
2022-11-23T09:50:03.168Z,49.08
2022-11-23T09:52:32.402Z,42.97
2022-11-23T09:55:04.377Z,39.22
2022-11-23T09:57:35.686Z,39.78
2022-11-23T10:00:17.653Z,37.88
2022-11-23T10:02:46.042Z,41.78
2022-11-23T10:05:19.991Z,38.83
2022-11-23T10:08:00.080Z,39.88
2022-11-23T10:10:41.727Z,42.10
2022-11-23T10:13:26.286Z,41.83
2022-11-23T10:16:17.568Z,44.85
2022-11-23T10:18:54.141Z,43.20
2022-11-23T10:21:31.165Z,49.00
2022-11-23T10:24:12.447Z,45.40
2022-11-23T10:27:17.075Z,44.35
2022-11-23T10:29:47.821Z,55.70
2022-11-23T10:32:27.677Z,57.63
2022-11-23T10:35:04.418Z,52.85
2022-11-23T10:37:34.682Z,55.35
2022-11-23T10:40:32.247Z,49.88
2022-11-23T10:43:06.546Z,53.55
2022-11-23T10:45:34.809Z,51.85
2022-11-23T10:48:38.586Z,47.00
2022-11-23T10:51:18.018Z,43.78
2022-11-23T10:53:52.102Z,45.42
2022-11-23T10:56:20.800Z,51.75
2022-11-23T10:58:54.860Z,55.55
2022-11-23T11:01:24.761Z,58.40
2022-11-23T11:04:03.356Z,63.03
2022-11-23T11:06:34.266Z,65.30
2022-11-23T11:09:08.386Z,50.20
2022-11-23T11:11:49.084Z,66.18
2022-11-23T11:14:19.360Z,55.08
2022-11-23T11:16:50.569Z,55.15
2022-11-23T11:19:32.334Z,56.50
2022-11-23T11:22:04.083Z,53.72
2022-11-23T11:24:35.281Z,59.00
2022-11-23T11:27:35.683Z,54.42
2022-11-23T11:30:08.363Z,56.58
2022-11-23T11:32:46.237Z,56.88
2022-11-23T11:35:28.148Z,54.70
2022-11-23T11:38:02.014Z,49.92
2022-11-23T11:40:56.045Z,58.50
2022-11-23T11:43:37.850Z,49.13
2022-11-23T11:46:30.374Z,44.67
2022-11-23T11:49:05.307Z,47.45
2022-11-23T11:51:41.492Z,52.83
2022-11-23T11:54:23.600Z,46.75
2022-11-23T11:57:01.471Z,51.42
2022-11-23T12:00:08.678Z,55.70
2022-11-23T12:02:58.516Z,48.13
2022-11-23T12:05:32.303Z,54.35
2022-11-23T12:08:09.560Z,43.17
2022-11-23T12:10:42.073Z,50.75
2022-11-23T12:13:15.072Z,53.90
2022-11-23T12:15:49.865Z,62.10
2022-11-23T12:18:47.540Z,56.33
2022-11-23T12:21:35.279Z,52.70
2022-11-23T12:24:35.655Z,45.28
2022-11-23T12:27:17.028Z,51.47
2022-11-23T12:33:19.517Z,57.35
2022-11-23T12:35:56.928Z,48.90
2022-11-23T12:38:33.418Z,49.65
2022-11-23T12:41:16.744Z,52.40
2022-11-23T12:44:07.305Z,51.95
2022-11-23T12:46:45.090Z,52.25
2022-11-23T12:49:28.989Z,55.40
2022-11-23T12:52:04.466Z,47.63
2022-11-23T12:54:51.411Z,61.38
2022-11-23T12:57:26.167Z,53.80
2022-11-23T12:59:57.486Z,47.83
2022-11-23T13:03:12.587Z,48.95
2022-11-23T13:06:06.531Z,54.63
2022-11-23T13:09:16.487Z,54.22
2022-11-23T13:12:01.437Z,49.88
2022-11-23T13:14:40.948Z,48.90
2022-11-23T13:17:19.695Z,51.40
2022-11-23T13:20:06.556Z,51.90
2022-11-23T13:22:36.206Z,57.17
2022-11-23T13:25:24.790Z,60.45
2022-11-23T13:28:02.577Z,59.25
2022-11-23T13:31:07.323Z,52.03
2022-11-23T13:33:38.785Z,53.45
2022-11-23T13:36:18.302Z,56.08
2022-11-23T13:38:47.943Z,53.42
2022-11-23T13:41:57.076Z,53.50
2022-11-23T13:44:30.985Z,50.80
2022-11-23T13:47:21.356Z,54.90
2022-11-23T13:50:06.025Z,61.50
2022-11-23T13:52:36.649Z,52.97
2022-11-23T13:55:19.686Z,56.50
2022-11-23T13:58:24.281Z,58.55
2022-11-23T14:00:54.615Z,56.97
2022-11-23T14:03:58.560Z,56.63
2022-11-23T14:06:51.312Z,55.58
2022-11-23T14:09:25.044Z,62.08
2022-11-23T14:12:01.433Z,58.03
2022-11-23T14:14:36.526Z,55.25
2022-11-23T14:17:34.991Z,66.13
2022-11-23T14:20:31.546Z,67.18
2022-11-23T14:23:39.768Z,59.03
2022-11-23T14:26:26.318Z,56.97
2022-11-23T14:29:19.139Z,57.92
2022-11-23T14:32:05.429Z,57.47
2022-11-23T14:34:41.235Z,63.63
2022-11-23T14:37:21.786Z,68.25
2022-11-23T14:40:04.813Z,64.25
2022-11-23T14:42:36.344Z,66.40
2022-11-23T14:45:07.205Z,57.90
2022-11-23T14:47:35.537Z,65.97
2022-11-23T14:50:04.125Z,63.05
2022-11-23T14:52:36.964Z,54.88
2022-11-23T14:55:07.690Z,56.17
2022-11-23T14:57:44.762Z,61.22
2022-11-23T15:00:27.087Z,60.33
2022-11-23T15:02:57.066Z,75.90
2022-11-23T15:05:29.959Z,69.90
2022-11-23T15:08:19.652Z,68.10
2022-11-23T15:10:53.131Z,84.80
2022-11-23T15:13:23.622Z,78.03
2022-11-23T15:15:59.757Z,66.95
2022-11-23T15:18:30.431Z,61.78
2022-11-23T15:21:02.090Z,67.18
2022-11-23T15:23:42.067Z,67.70
2022-11-23T15:26:46.207Z,62.60
2022-11-23T15:29:29.269Z,67.57
2022-11-23T15:32:22.478Z,70.85
2022-11-23T15:34:50.191Z,72.18
2022-11-23T15:37:19.871Z,85.15
2022-11-23T15:39:52.924Z,71.28
2022-11-23T15:42:23.372Z,80.78
2022-11-23T15:44:53.492Z,81.65
2022-11-23T15:47:27.425Z,80.90
2022-11-23T15:50:01.690Z,90.85
2022-11-23T15:52:35.428Z,89.13
2022-11-23T15:55:11.873Z,104.55
2022-11-23T15:57:41.322Z,99.68
2022-11-23T16:00:22.502Z,92.95
2022-11-23T16:02:51.161Z,85.50
2022-11-23T16:05:23.206Z,105.15
2022-11-23T16:07:55.686Z,88.50
2022-11-23T16:10:27.069Z,83.03
2022-11-23T16:12:57.800Z,109.78
2022-11-23T16:15:49.176Z,93.72
2022-11-23T16:18:24.892Z,89.05
2022-11-23T16:21:05.620Z,92.97
2022-11-23T16:23:44.518Z,96.38
2022-11-23T16:26:35.881Z,99.55
2022-11-23T16:29:05.894Z,88.53
2022-11-23T16:31:42.225Z,98.00
2022-11-23T16:34:13.824Z,89.53
2022-11-23T16:36:42.656Z,91.85
2022-11-23T16:39:17.825Z,79.75
2022-11-23T16:41:56.162Z,86.30
2022-11-23T16:44:24.388Z,83.80
2022-11-23T16:46:53.602Z,72.35
2022-11-23T16:49:24.481Z,89.90
2022-11-23T16:52:03.275Z,86.18
2022-11-23T16:54:32.224Z,74.13
2022-11-23T16:57:20.596Z,72.63
2022-11-23T16:59:49.105Z,78.40
2022-11-23T17:02:18.141Z,76.47
2022-11-23T17:04:47.232Z,78.15
2022-11-23T17:07:16.955Z,67.68
2022-11-23T17:09:45.489Z,76.65
2022-11-23T17:12:18.109Z,80.88
2022-11-23T17:14:49.934Z,76.13
2022-11-23T17:17:21.610Z,74.88
2022-11-23T17:19:52.937Z,82.55
2022-11-23T17:22:21.828Z,75.95
2022-11-23T17:24:52.800Z,75.75
2022-11-23T17:27:23.804Z,78.05
2022-11-23T17:29:58.630Z,79.15
2022-11-23T17:32:27.561Z,73.35
2022-11-23T17:34:56.433Z,65.57
2022-11-23T17:37:25.826Z,63.58
2022-11-23T17:39:54.295Z,66.68
2022-11-23T17:42:22.712Z,68.15
2022-11-23T17:45:05.584Z,55.55
2022-11-23T17:47:45.880Z,77.03
2022-11-23T17:50:29.530Z,72.15
2022-11-23T17:53:00.683Z,72.55
2022-11-23T17:55:29.063Z,78.47
2022-11-23T17:57:57.491Z,73.78
2022-11-23T18:00:25.824Z,76.40
2022-11-23T18:02:56.199Z,72.95
2022-11-23T18:05:25.556Z,66.75
2022-11-23T18:07:54.491Z,60.85
2022-11-23T18:10:28.517Z,73.15
2022-11-23T18:12:57.838Z,80.75
2022-11-23T18:15:30.459Z,70.82
2022-11-23T18:18:04.445Z,83.47
2022-11-23T18:20:33.263Z,79.18
2022-11-23T18:23:01.549Z,75.05
2022-11-23T18:25:30.045Z,73.53
2022-11-23T18:27:58.419Z,79.20
2022-11-23T18:30:27.162Z,76.85
2022-11-23T18:32:59.050Z,84.63
2022-11-23T18:35:28.881Z,78.47
2022-11-23T18:37:57.432Z,79.90
2022-11-23T18:40:26.069Z,74.40
2022-11-23T18:43:01.603Z,71.90
2022-11-23T18:46:02.507Z,80.47
2022-11-23T18:48:31.777Z,67.68
2022-11-23T18:51:05.103Z,64.93
2022-11-23T18:53:34.501Z,62.67
2022-11-23T18:56:04.820Z,71.72
2022-11-23T18:58:34.423Z,70.97
2022-11-23T19:01:15.257Z,68.63
2022-11-23T19:03:45.841Z,69.13
2022-11-23T19:06:42.833Z,73.68
2022-11-23T19:09:16.091Z,65.78
2022-11-23T19:11:44.963Z,67.43
2022-11-23T19:14:25.378Z,74.28
2022-11-23T19:16:54.039Z,70.43
2022-11-23T19:19:24.631Z,78.22
2022-11-23T19:21:54.755Z,62.03
2022-11-23T19:24:23.322Z,68.50
2022-11-23T19:26:56.963Z,75.82
2022-11-23T19:29:29.071Z,72.15
2022-11-23T19:31:57.498Z,80.15
2022-11-23T19:34:29.019Z,75.95
2022-11-23T19:37:13.886Z,74.63
2022-11-23T19:39:42.338Z,70.07
2022-11-23T19:42:10.868Z,77.15
2022-11-23T19:44:39.364Z,77.97
2022-11-23T19:47:14.514Z,76.85
2022-11-23T19:49:45.275Z,72.13
2022-11-23T19:52:15.099Z,92.95
2022-11-23T19:54:43.530Z,81.25
2022-11-23T19:57:11.954Z,85.75
2022-11-23T19:59:40.435Z,86.22
2022-11-23T20:02:10.589Z,77.28
2022-11-23T20:04:39.407Z,88.68
2022-11-23T20:07:08.833Z,75.60
2022-11-23T20:09:41.339Z,86.45
2022-11-23T20:12:09.645Z,89.80
2022-11-23T20:14:38.097Z,81.43
2022-11-23T20:17:10.464Z,73.97
2022-11-23T20:19:45.365Z,74.28
2022-11-23T20:22:26.735Z,67.30
2022-11-23T20:25:12.272Z,73.47
2022-11-23T20:27:40.944Z,75.85
2022-11-23T20:30:10.324Z,67.32
2022-11-23T20:32:39.155Z,85.35
2022-11-23T20:35:10.994Z,75.50
2022-11-23T20:37:39.387Z,75.88
2022-11-23T20:40:08.796Z,74.38
2022-11-23T20:42:56.213Z,79.30
2022-11-23T20:45:24.891Z,72.05
2022-11-23T20:48:01.174Z,69.90
2022-11-23T20:50:35.458Z,75.13
2022-11-23T20:53:06.180Z,85.93
2022-11-23T20:55:34.570Z,83.43
2022-11-23T20:58:08.295Z,80.93
2022-11-23T21:04:30.518Z,80.10
2022-11-23T21:07:01.605Z,78.13
2022-11-23T21:09:32.815Z,80.15
2022-11-23T21:15:25.433Z,81.38
2022-11-23T21:17:54.093Z,85.50
2022-11-23T21:20:24.735Z,79.50
2022-11-23T21:23:13.270Z,82.82
2022-11-23T21:25:52.014Z,88.25
2022-11-23T21:28:24.101Z,83.03
2022-11-23T21:31:30.261Z,74.20
2022-11-23T21:34:06.427Z,61.17
2022-11-23T21:36:53.407Z,72.18
2022-11-23T21:39:24.563Z,75.78
2022-11-23T21:42:11.139Z,64.57
2022-11-23T21:48:52.435Z,70.55
2022-11-23T21:51:48.563Z,65.25
2022-11-23T21:54:26.806Z,72.72
2022-11-23T21:57:10.322Z,80.50
2022-11-23T22:12:44.664Z,79.45
2022-11-23T22:39:57.584Z,74.72
2022-11-23T22:47:03.177Z,59.45
2022-11-23T22:50:36.888Z,70.15
2022-11-23T23:08:35.512Z,59.78
2022-11-23T23:11:37.863Z,55.47
2022-11-23T23:18:11.190Z,47.78
2022-11-23T23:29:58.882Z,56.97
2022-11-23T23:32:27.546Z,64.65
2022-11-23T23:42:48.502Z,72.28
2022-11-23T23:46:13.274Z,73.93
2022-11-23T23:49:04.251Z,70.63
2022-11-23T23:51:51.843Z,65.63
2022-11-23T23:54:29.078Z,65.68
2022-11-23T23:57:28.238Z,65.28
